sensor_id;sensor_type;location;lat;lon;timestamp;pressure;altitude;pressure_sealevel;temperature;humidity
11856;BME280;5987;53.140;8.904;2022-12-29T00:02:52;100062.84;;;7.88;100.00
11856;BME280;5987;53.140;8.904;2022-12-29T00:05:56;100058.91;;;7.76;100.00
11856;BME280;5987;53.140;8.904;2022-12-29T00:09:00;100056.41;;;7.73;100.00
11856;BME280;5987;53.140;8.904;2022-12-29T00:12:06;100043.91;;;7.81;100.00
11856;BME280;5987;53.140;8.904;2022-12-29T00:15:10;100043.66;;;7.87;100.00
11856;BME280;5987;53.140;8.904;2022-12-29T00:18:27;100041.84;;;7.89;100.00
11856;BME280;5987;53.140;8.904;2022-12-29T00:21:31;100034.03;;;7.89;100.00
11856;BME280;5987;53.140;8.904;2022-12-29T00:25:02;100025.22;;;7.92;100.00
11856;BME280;5987;53.140;8.904;2022-12-29T00:28:24;100011.34;;;7.90;100.00
11856;BME280;5987;53.140;8.904;2022-12-29T00:31:45;100020.56;;;7.99;100.00
11856;BME280;5987;53.140;8.904;2022-12-29T00:35:09;100024.00;;;8.01;100.00
11856;BME280;5987;53.140;8.904;2022-12-29T00:38:14;100020.47;;;8.02;100.00
11856;BME280;5987;53.140;8.904;2022-12-29T00:41:48;100017.47;;;8.11;100.00
11856;BME280;5987;53.140;8.904;2022-12-29T00:45:29;100006.13;;;8.12;100.00
11856;BME280;5987;53.140;8.904;2022-12-29T00:48:32;100011.16;;;8.17;100.00
11856;BME280;5987;53.140;8.904;2022-12-29T00:51:55;100002.53;;;8.15;100.00
11856;BME280;5987;53.140;8.904;2022-12-29T00:54:59;100007.81;;;8.13;100.00
11856;BME280;5987;53.140;8.904;2022-12-29T00:58:03;100005.22;;;8.13;100.00
11856;BME280;5987;53.140;8.904;2022-12-29T01:01:09;100003.50;;;8.12;100.00
11856;BME280;5987;53.140;8.904;2022-12-29T01:04:13;99999.31;;;8.08;100.00
11856;BME280;5987;53.140;8.904;2022-12-29T01:07:17;99999.91;;;8.15;100.00
11856;BME280;5987;53.140;8.904;2022-12-29T01:10:20;99984.47;;;8.08;100.00
11856;BME280;5987;53.140;8.904;2022-12-29T01:13:23;99986.16;;;8.10;100.00
11856;BME280;5987;53.140;8.904;2022-12-29T01:16:28;99990.50;;;8.11;100.00
11856;BME280;5987;53.140;8.904;2022-12-29T01:19:32;99979.13;;;8.12;100.00
11856;BME280;5987;53.140;8.904;2022-12-29T01:22:36;99980.72;;;8.16;100.00
11856;BME280;5987;53.140;8.904;2022-12-29T01:25:40;99966.84;;;8.14;100.00
11856;BME280;5987;53.140;8.904;2022-12-29T01:28:44;99967.50;;;8.19;100.00
11856;BME280;5987;53.140;8.904;2022-12-29T01:31:49;99970.53;;;8.30;100.00
11856;BME280;5987;53.140;8.904;2022-12-29T01:34:53;99968.94;;;8.26;100.00
11856;BME280;5987;53.140;8.904;2022-12-29T01:37:57;99958.09;;;8.35;100.00
11856;BME280;5987;53.140;8.904;2022-12-29T01:41:02;99945.75;;;8.39;100.00
11856;BME280;5987;53.140;8.904;2022-12-29T01:44:49;99951.47;;;8.49;100.00
11856;BME280;5987;53.140;8.904;2022-12-29T01:47:59;99953.19;;;8.50;100.00
11856;BME280;5987;53.140;8.904;2022-12-29T01:51:05;99950.44;;;8.53;100.00
11856;BME280;5987;53.140;8.904;2022-12-29T01:54:11;99945.41;;;8.48;100.00
11856;BME280;5987;53.140;8.904;2022-12-29T01:57:21;99951.88;;;8.60;100.00
11856;BME280;5987;53.140;8.904;2022-12-29T02:00:25;99943.56;;;8.50;100.00
11856;BME280;5987;53.140;8.904;2022-12-29T02:03:31;99928.59;;;8.54;100.00
11856;BME280;5987;53.140;8.904;2022-12-29T02:06:42;99926.75;;;8.56;100.00
11856;BME280;5987;53.140;8.904;2022-12-29T02:09:50;99922.69;;;8.49;100.00
11856;BME280;5987;53.140;8.904;2022-12-29T02:12:55;99925.31;;;8.49;100.00
11856;BME280;5987;53.140;8.904;2022-12-29T02:16:16;99913.66;;;8.56;100.00
11856;BME280;5987;53.140;8.904;2022-12-29T02:20:14;99908.22;;;8.61;100.00
11856;BME280;5987;53.140;8.904;2022-12-29T02:27:50;99913.28;;;8.65;100.00
11856;BME280;5987;53.140;8.904;2022-12-29T02:31:08;99901.75;;;8.69;100.00
11856;BME280;5987;53.140;8.904;2022-12-29T02:34:28;99888.38;;;8.75;100.00
11856;BME280;5987;53.140;8.904;2022-12-29T02:37:43;99887.66;;;8.72;100.00
11856;BME280;5987;53.140;8.904;2022-12-29T02:41:00;99894.28;;;8.81;100.00
11856;BME280;5987;53.140;8.904;2022-12-29T02:44:14;99893.56;;;8.77;100.00
11856;BME280;5987;53.140;8.904;2022-12-29T02:47:30;99895.13;;;8.81;100.00
11856;BME280;5987;53.140;8.904;2022-12-29T02:50:47;99880.53;;;8.75;100.00
11856;BME280;5987;53.140;8.904;2022-12-29T02:53:54;99876.72;;;8.83;100.00
11856;BME280;5987;53.140;8.904;2022-12-29T02:57:30;99888.91;;;8.84;100.00
11856;BME280;5987;53.140;8.904;2022-12-29T03:00:41;99874.75;;;8.88;100.00
11856;BME280;5987;53.140;8.904;2022-12-29T03:04:11;99875.53;;;8.90;100.00
11856;BME280;5987;53.140;8.904;2022-12-29T03:07:29;99860.59;;;8.92;100.00
11856;BME280;5987;53.140;8.904;2022-12-29T03:10:50;99869.22;;;8.94;100.00
11856;BME280;5987;53.140;8.904;2022-12-29T03:14:02;99858.69;;;8.96;100.00
11856;BME280;5987;53.140;8.904;2022-12-29T03:17:36;99848.03;;;9.00;100.00
11856;BME280;5987;53.140;8.904;2022-12-29T03:20:52;99850.75;;;8.97;100.00
11856;BME280;5987;53.140;8.904;2022-12-29T03:23:57;99836.13;;;8.93;100.00
11856;BME280;5987;53.140;8.904;2022-12-29T03:27:05;99836.53;;;8.84;100.00
11856;BME280;5987;53.140;8.904;2022-12-29T03:30:11;99835.63;;;8.85;100.00
11856;BME280;5987;53.140;8.904;2022-12-29T03:33:21;99830.91;;;8.93;100.00
11856;BME280;5987;53.140;8.904;2022-12-29T03:36:35;99825.38;;;8.99;100.00
11856;BME280;5987;53.140;8.904;2022-12-29T03:39:42;99826.72;;;8.89;100.00
11856;BME280;5987;53.140;8.904;2022-12-29T03:42:47;99820.13;;;8.99;100.00
11856;BME280;5987;53.140;8.904;2022-12-29T03:45:51;99822.09;;;8.94;100.00
11856;BME280;5987;53.140;8.904;2022-12-29T03:48:55;99818.28;;;9.01;100.00
11856;BME280;5987;53.140;8.904;2022-12-29T03:52:00;99816.72;;;8.97;100.00
11856;BME280;5987;53.140;8.904;2022-12-29T03:55:05;99821.84;;;9.00;100.00
11856;BME280;5987;53.140;8.904;2022-12-29T03:58:09;99825.38;;;8.99;100.00
11856;BME280;5987;53.140;8.904;2022-12-29T04:01:13;99817.84;;;8.91;100.00
11856;BME280;5987;53.140;8.904;2022-12-29T04:04:19;99805.28;;;8.81;100.00
11856;BME280;5987;53.140;8.904;2022-12-29T04:07:24;99807.25;;;8.75;100.00
11856;BME280;5987;53.140;8.904;2022-12-29T04:10:28;99801.38;;;8.70;100.00
11856;BME280;5987;53.140;8.904;2022-12-29T04:13:31;99814.47;;;8.70;100.00
11856;BME280;5987;53.140;8.904;2022-12-29T04:16:35;99801.59;;;8.66;100.00
11856;BME280;5987;53.140;8.904;2022-12-29T04:19:41;99814.88;;;8.61;100.00
11856;BME280;5987;53.140;8.904;2022-12-29T04:22:46;99804.28;;;8.64;100.00
11856;BME280;5987;53.140;8.904;2022-12-29T04:25:50;99807.66;;;8.66;100.00
11856;BME280;5987;53.140;8.904;2022-12-29T04:28:53;99793.97;;;8.61;100.00
11856;BME280;5987;53.140;8.904;2022-12-29T04:31:57;99791.97;;;8.66;100.00
11856;BME280;5987;53.140;8.904;2022-12-29T04:35:01;99792.59;;;8.71;100.00
11856;BME280;5987;53.140;8.904;2022-12-29T04:38:06;99787.38;;;8.71;100.00
11856;BME280;5987;53.140;8.904;2022-12-29T04:41:09;99790.34;;;8.83;100.00
11856;BME280;5987;53.140;8.904;2022-12-29T04:44:13;99778.25;;;8.80;100.00
11856;BME280;5987;53.140;8.904;2022-12-29T04:47:19;99789.84;;;8.74;100.00
11856;BME280;5987;53.140;8.904;2022-12-29T04:50:23;99794.38;;;8.71;100.00
11856;BME280;5987;53.140;8.904;2022-12-29T04:53:28;99801.88;;;8.79;100.00
11856;BME280;5987;53.140;8.904;2022-12-29T04:56:31;99800.31;;;8.93;100.00
11856;BME280;5987;53.140;8.904;2022-12-29T04:59:35;99803.03;;;8.92;100.00
11856;BME280;5987;53.140;8.904;2022-12-29T05:02:39;99792.41;;;8.95;100.00
11856;BME280;5987;53.140;8.904;2022-12-29T05:05:43;99790.53;;;8.97;100.00
11856;BME280;5987;53.140;8.904;2022-12-29T05:08:48;99790.97;;;9.07;100.00
11856;BME280;5987;53.140;8.904;2022-12-29T05:11:51;99770.31;;;9.01;100.00
11856;BME280;5987;53.140;8.904;2022-12-29T05:14:55;99786.84;;;9.01;100.00
11856;BME280;5987;53.140;8.904;2022-12-29T05:17:58;99796.25;;;9.05;100.00
11856;BME280;5987;53.140;8.904;2022-12-29T05:21:02;99791.41;;;8.98;100.00
11856;BME280;5987;53.140;8.904;2022-12-29T05:24:08;99800.31;;;8.93;100.00
11856;BME280;5987;53.140;8.904;2022-12-29T05:27:12;99801.16;;;8.94;100.00
11856;BME280;5987;53.140;8.904;2022-12-29T05:30:15;99817.81;;;8.93;100.00
11856;BME280;5987;53.140;8.904;2022-12-29T05:33:19;99800.97;;;8.80;100.00
11856;BME280;5987;53.140;8.904;2022-12-29T05:36:23;99803.50;;;8.62;100.00
11856;BME280;5987;53.140;8.904;2022-12-29T05:39:28;99813.47;;;8.54;100.00
11856;BME280;5987;53.140;8.904;2022-12-29T05:42:32;99822.22;;;8.53;100.00
11856;BME280;5987;53.140;8.904;2022-12-29T05:45:36;99829.16;;;8.54;100.00
11856;BME280;5987;53.140;8.904;2022-12-29T05:48:40;99840.69;;;8.50;100.00
11856;BME280;5987;53.140;8.904;2022-12-29T05:51:44;99845.78;;;8.53;100.00
11856;BME280;5987;53.140;8.904;2022-12-29T05:54:49;99826.03;;;8.46;100.00
11856;BME280;5987;53.140;8.904;2022-12-29T05:57:52;99815.81;;;8.39;100.00
11856;BME280;5987;53.140;8.904;2022-12-29T06:00:56;99808.75;;;8.41;100.00
11856;BME280;5987;53.140;8.904;2022-12-29T06:04:00;99807.03;;;8.40;100.00
11856;BME280;5987;53.140;8.904;2022-12-29T06:07:04;99814.13;;;8.38;100.00
11856;BME280;5987;53.140;8.904;2022-12-29T06:10:10;99808.75;;;8.41;100.00
11856;BME280;5987;53.140;8.904;2022-12-29T06:13:13;99801.81;;;8.40;100.00
11856;BME280;5987;53.140;8.904;2022-12-29T06:16:18;99801.16;;;8.56;100.00
11856;BME280;5987;53.140;8.904;2022-12-29T06:19:22;99782.50;;;8.64;100.00
11856;BME280;5987;53.140;8.904;2022-12-29T06:22:25;99781.56;;;8.65;100.00
11856;BME280;5987;53.140;8.904;2022-12-29T06:25:31;99780.66;;;8.66;100.00
11856;BME280;5987;53.140;8.904;2022-12-29T06:28:35;99779.81;;;8.65;100.00
11856;BME280;5987;53.140;8.904;2022-12-29T06:31:39;99775.50;;;8.64;100.00
11856;BME280;5987;53.140;8.904;2022-12-29T06:34:43;99778.13;;;8.64;100.00
11856;BME280;5987;53.140;8.904;2022-12-29T06:37:48;99793.09;;;8.61;100.00
11856;BME280;5987;53.140;8.904;2022-12-29T06:40:53;99790.69;;;8.56;100.00
11856;BME280;5987;53.140;8.904;2022-12-29T06:43:56;99789.94;;;8.54;100.00
11856;BME280;5987;53.140;8.904;2022-12-29T06:47:00;99810.06;;;8.52;100.00
11856;BME280;5987;53.140;8.904;2022-12-29T06:50:05;99832.84;;;8.50;100.00
11856;BME280;5987;53.140;8.904;2022-12-29T06:53:09;99832.19;;;8.45;100.00
11856;BME280;5987;53.140;8.904;2022-12-29T06:56:14;99842.91;;;8.38;100.00
11856;BME280;5987;53.140;8.904;2022-12-29T06:59:18;99844.66;;;8.38;100.00
11856;BME280;5987;53.140;8.904;2022-12-29T07:02:23;99832.06;;;8.27;100.00
11856;BME280;5987;53.140;8.904;2022-12-29T07:05:27;99808.34;;;8.51;100.00
11856;BME280;5987;53.140;8.904;2022-12-29T07:08:33;99817.28;;;8.47;100.00
11856;BME280;5987;53.140;8.904;2022-12-29T07:11:38;99826.34;;;8.38;100.00
11856;BME280;5987;53.140;8.904;2022-12-29T07:14:42;99816.16;;;8.32;100.00
11856;BME280;5987;53.140;8.904;2022-12-29T07:17:46;99825.81;;;8.30;100.00
11856;BME280;5987;53.140;8.904;2022-12-29T07:20:51;99812.56;;;8.34;100.00
11856;BME280;5987;53.140;8.904;2022-12-29T07:23:55;99829.50;;;8.26;100.00
11856;BME280;5987;53.140;8.904;2022-12-29T07:27:00;99828.06;;;8.18;100.00
11856;BME280;5987;53.140;8.904;2022-12-29T07:30:05;99835.34;;;8.12;100.00
11856;BME280;5987;53.140;8.904;2022-12-29T07:33:11;99853.63;;;8.12;100.00
11856;BME280;5987;53.140;8.904;2022-12-29T07:36:16;99843.56;;;8.02;100.00
11856;BME280;5987;53.140;8.904;2022-12-29T07:39:20;99854.06;;;8.01;100.00
11856;BME280;5987;53.140;8.904;2022-12-29T07:42:25;99858.06;;;7.89;100.00
11856;BME280;5987;53.140;8.904;2022-12-29T07:45:28;99854.66;;;7.87;100.00
11856;BME280;5987;53.140;8.904;2022-12-29T07:48:32;99854.50;;;7.90;100.00
11856;BME280;5987;53.140;8.904;2022-12-29T07:51:38;99872.50;;;7.98;100.00
11856;BME280;5987;53.140;8.904;2022-12-29T07:54:42;99880.88;;;8.06;100.00
11856;BME280;5987;53.140;8.904;2022-12-29T07:57:47;99872.31;;;8.02;100.00
11856;BME280;5987;53.140;8.904;2022-12-29T08:00:53;99892.19;;;8.06;100.00
11856;BME280;5987;53.140;8.904;2022-12-29T08:03:57;99893.75;;;8.11;100.00
11856;BME280;5987;53.140;8.904;2022-12-29T08:07:02;99894.88;;;8.05;100.00
11856;BME280;5987;53.140;8.904;2022-12-29T08:10:07;99909.94;;;7.98;100.00
11856;BME280;5987;53.140;8.904;2022-12-29T08:13:12;99890.47;;;8.05;100.00
11856;BME280;5987;53.140;8.904;2022-12-29T08:16:15;99894.88;;;8.05;100.00
11856;BME280;5987;53.140;8.904;2022-12-29T08:19:19;99888.66;;;8.07;100.00
11856;BME280;5987;53.140;8.904;2022-12-29T08:22:23;99899.25;;;8.04;100.00
11856;BME280;5987;53.140;8.904;2022-12-29T08:25:27;99895.84;;;8.02;100.00
11856;BME280;5987;53.140;8.904;2022-12-29T08:28:33;99904.22;;;8.11;100.00
11856;BME280;5987;53.140;8.904;2022-12-29T08:31:37;99905.78;;;8.15;100.00
11856;BME280;5987;53.140;8.904;2022-12-29T08:34:41;99907.50;;;8.16;100.00
11856;BME280;5987;53.140;8.904;2022-12-29T08:37:44;99912.97;;;8.10;100.00
11856;BME280;5987;53.140;8.904;2022-12-29T08:40:48;99919.91;;;8.11;100.00
11856;BME280;5987;53.140;8.904;2022-12-29T08:43:53;99908.84;;;8.04;100.00
11856;BME280;5987;53.140;8.904;2022-12-29T08:46:57;99920.88;;;8.08;100.00
11856;BME280;5987;53.140;8.904;2022-12-29T08:50:01;99934.00;;;8.06;100.00
11856;BME280;5987;53.140;8.904;2022-12-29T08:53:04;99924.22;;;8.12;100.00
11856;BME280;5987;53.140;8.904;2022-12-29T08:56:10;99925.41;;;8.25;100.00
11856;BME280;5987;53.140;8.904;2022-12-29T08:59:15;99940.13;;;8.28;100.00
11856;BME280;5987;53.140;8.904;2022-12-29T09:02:19;99933.00;;;8.31;100.00
11856;BME280;5987;53.140;8.904;2022-12-29T09:05:26;99945.16;;;8.32;100.00
11856;BME280;5987;53.140;8.904;2022-12-29T09:08:29;99922.19;;;8.39;100.00
11856;BME280;5987;53.140;8.904;2022-12-29T09:11:33;99928.34;;;8.38;100.00
11856;BME280;5987;53.140;8.904;2022-12-29T09:14:38;99937.66;;;8.45;100.00
11856;BME280;5987;53.140;8.904;2022-12-29T09:17:42;99939.38;;;8.46;100.00
11856;BME280;5987;53.140;8.904;2022-12-29T09:20:46;99948.09;;;8.47;100.00
11856;BME280;5987;53.140;8.904;2022-12-29T09:23:50;99963.50;;;8.53;100.00
11856;BME280;5987;53.140;8.904;2022-12-29T09:26:54;99972.13;;;8.55;100.00
11856;BME280;5987;53.140;8.904;2022-12-29T09:29:59;99973.13;;;8.52;100.00
11856;BME280;5987;53.140;8.904;2022-12-29T09:33:03;99955.72;;;8.51;100.00
11856;BME280;5987;53.140;8.904;2022-12-29T09:36:08;99950.56;;;8.50;100.00
11856;BME280;5987;53.140;8.904;2022-12-29T09:39:13;99953.03;;;8.53;100.00
11856;BME280;5987;53.140;8.904;2022-12-29T09:42:23;99951.66;;;8.65;100.00
11856;BME280;5987;53.140;8.904;2022-12-29T09:45:37;99950.69;;;8.67;100.00
11856;BME280;5987;53.140;8.904;2022-12-29T09:48:50;99952.66;;;8.62;100.00
11856;BME280;5987;53.140;8.904;2022-12-29T09:52:04;99953.38;;;8.66;100.00
11856;BME280;5987;53.140;8.904;2022-12-29T09:55:15;99963.97;;;8.63;100.00
11856;BME280;5987;53.140;8.904;2022-12-29T09:58:27;99963.00;;;8.65;100.00
11856;BME280;5987;53.140;8.904;2022-12-29T10:01:42;99962.84;;;8.68;100.00
11856;BME280;5987;53.140;8.904;2022-12-29T10:04:51;99961.88;;;8.71;100.00
11856;BME280;5987;53.140;8.904;2022-12-29T10:08:10;99965.56;;;8.86;100.00
11856;BME280;5987;53.140;8.904;2022-12-29T10:11:33;99943.66;;;8.88;100.00
11856;BME280;5987;53.140;8.904;2022-12-29T10:14:59;99953.59;;;8.80;100.00
11856;BME280;5987;53.140;8.904;2022-12-29T10:18:22;99949.31;;;8.79;100.00
11856;BME280;5987;53.140;8.904;2022-12-29T10:21:41;99938.25;;;8.72;100.00
11856;BME280;5987;53.140;8.904;2022-12-29T10:24:53;99940.81;;;8.74;100.00
11856;BME280;5987;53.140;8.904;2022-12-29T10:28:04;99936.53;;;8.71;100.00
11856;BME280;5987;53.140;8.904;2022-12-29T10:31:18;99941.78;;;8.71;100.00
11856;BME280;5987;53.140;8.904;2022-12-29T10:34:29;99940.22;;;8.67;100.00
11856;BME280;5987;53.140;8.904;2022-12-29T10:37:42;99946.25;;;8.69;100.00
11856;BME280;5987;53.140;8.904;2022-12-29T10:40:57;99953.97;;;8.72;100.00
11856;BME280;5987;53.140;8.904;2022-12-29T10:44:02;99952.31;;;8.70;100.00
11856;BME280;5987;53.140;8.904;2022-12-29T10:47:11;99952.38;;;8.68;100.00
11856;BME280;5987;53.140;8.904;2022-12-29T10:50:19;99957.03;;;8.62;100.00
11856;BME280;5987;53.140;8.904;2022-12-29T10:53:26;99967.63;;;8.58;100.00
11856;BME280;5987;53.140;8.904;2022-12-29T10:56:35;99976.59;;;8.53;100.00
11856;BME280;5987;53.140;8.904;2022-12-29T10:59:41;99970.69;;;8.48;100.00
11856;BME280;5987;53.140;8.904;2022-12-29T11:03:18;99976.72;;;8.50;100.00
11856;BME280;5987;53.140;8.904;2022-12-29T11:06:29;99972.75;;;8.39;100.00
11856;BME280;5987;53.140;8.904;2022-12-29T11:09:38;99964.91;;;8.39;100.00
11856;BME280;5987;53.140;8.904;2022-12-29T11:12:57;99957.03;;;8.39;100.00
11856;BME280;5987;53.140;8.904;2022-12-29T11:16:01;99958.00;;;8.38;100.00
11856;BME280;5987;53.140;8.904;2022-12-29T11:19:05;99959.66;;;8.39;100.00
11856;BME280;5987;53.140;8.904;2022-12-29T11:22:24;99957.69;;;8.46;100.00
11856;BME280;5987;53.140;8.904;2022-12-29T11:25:28;99952.91;;;8.56;100.00
11856;BME280;5987;53.140;8.904;2022-12-29T11:28:32;99950.81;;;8.64;100.00
11856;BME280;5987;53.140;8.904;2022-12-29T11:31:41;99945.44;;;8.67;100.00
11856;BME280;5987;53.140;8.904;2022-12-29T11:34:46;99949.25;;;8.81;100.00
11856;BME280;5987;53.140;8.904;2022-12-29T11:37:58;99945.50;;;8.86;100.00
11856;BME280;5987;53.140;8.904;2022-12-29T11:41:03;99934.75;;;8.92;100.00
11856;BME280;5987;53.140;8.904;2022-12-29T11:44:13;99931.06;;;8.97;100.00
11856;BME280;5987;53.140;8.904;2022-12-29T11:47:26;99933.22;;;9.07;100.00
11856;BME280;5987;53.140;8.904;2022-12-29T11:50:33;99931.50;;;9.06;100.00
11856;BME280;5987;53.140;8.904;2022-12-29T11:53:45;99935.03;;;9.05;100.00
11856;BME280;5987;53.140;8.904;2022-12-29T11:56:51;99942.00;;;9.06;100.00
11856;BME280;5987;53.140;8.904;2022-12-29T11:59:57;99932.09;;;9.13;100.00
11856;BME280;5987;53.140;8.904;2022-12-29T12:03:07;99944.00;;;9.20;100.00
11856;BME280;5987;53.140;8.904;2022-12-29T12:06:20;99943.00;;;9.23;100.00
11856;BME280;5987;53.140;8.904;2022-12-29T12:09:32;99944.69;;;9.24;100.00
11856;BME280;5987;53.140;8.904;2022-12-29T12:12:47;99936.50;;;9.32;100.00
11856;BME280;5987;53.140;8.904;2022-12-29T12:16:00;99931.97;;;9.35;100.00
11856;BME280;5987;53.140;8.904;2022-12-29T12:19:16;99941.66;;;9.33;100.00
11856;BME280;5987;53.140;8.904;2022-12-29T12:22:31;99948.75;;;9.31;100.00
11856;BME280;5987;53.140;8.904;2022-12-29T12:25:48;99945.56;;;9.24;100.00
11856;BME280;5987;53.140;8.904;2022-12-29T12:28:59;99951.38;;;9.31;100.00
11856;BME280;5987;53.140;8.904;2022-12-29T12:32:12;99958.72;;;9.23;100.00
11856;BME280;5987;53.140;8.904;2022-12-29T12:35:29;99957.59;;;9.29;100.00
11856;BME280;5987;53.140;8.904;2022-12-29T12:38:52;99969.69;;;9.31;100.00
11856;BME280;5987;53.140;8.904;2022-12-29T12:42:16;99977.38;;;9.15;100.00
11856;BME280;5987;53.140;8.904;2022-12-29T12:45:47;99989.41;;;9.00;100.00
11856;BME280;5987;53.140;8.904;2022-12-29T12:52:50;99999.22;;;8.74;100.00
11856;BME280;5987;53.140;8.904;2022-12-29T12:56:31;100004.34;;;8.78;100.00
11856;BME280;5987;53.140;8.904;2022-12-29T12:59:56;100001.84;;;8.74;100.00
11856;BME280;5987;53.140;8.904;2022-12-29T13:03:12;100020.44;;;8.68;100.00
11856;BME280;5987;53.140;8.904;2022-12-29T13:06:29;100032.06;;;8.61;100.00
11856;BME280;5987;53.140;8.904;2022-12-29T13:09:54;100052.78;;;8.44;100.00
11856;BME280;5987;53.140;8.904;2022-12-29T13:13:31;100052.94;;;8.40;100.00
11856;BME280;5987;53.140;8.904;2022-12-29T13:16:46;100056.44;;;8.39;100.00
11856;BME280;5987;53.140;8.904;2022-12-29T13:20:03;100060.78;;;8.40;100.00
11856;BME280;5987;53.140;8.904;2022-12-29T13:23:22;100066.00;;;8.40;100.00
11856;BME280;5987;53.140;8.904;2022-12-29T13:26:35;100056.78;;;8.54;100.00
11856;BME280;5987;53.140;8.904;2022-12-29T13:29:54;100062.81;;;8.56;100.00
11856;BME280;5987;53.140;8.904;2022-12-29T13:33:15;100074.97;;;8.57;100.00
11856;BME280;5987;53.140;8.904;2022-12-29T13:36:28;100083.94;;;8.51;100.00
11856;BME280;5987;53.140;8.904;2022-12-29T13:39:39;100083.13;;;8.49;100.00
11856;BME280;5987;53.140;8.904;2022-12-29T13:42:45;100103.03;;;8.53;100.00
11856;BME280;5987;53.140;8.904;2022-12-29T13:45:59;100090.88;;;8.52;100.00
11856;BME280;5987;53.140;8.904;2022-12-29T13:49:12;100104.78;;;8.53;100.00
11856;BME280;5987;53.140;8.904;2022-12-29T13:52:28;100105.09;;;8.45;100.00
11856;BME280;5987;53.140;8.904;2022-12-29T13:55:47;100126.03;;;8.44;100.00
11856;BME280;5987;53.140;8.904;2022-12-29T13:58:58;100124.38;;;8.43;100.00
11856;BME280;5987;53.140;8.904;2022-12-29T14:02:19;100134.03;;;8.40;100.00
11856;BME280;5987;53.140;8.904;2022-12-29T14:05:31;100148.00;;;8.39;100.00
11856;BME280;5987;53.140;8.904;2022-12-29T14:08:35;100153.03;;;8.46;100.00
11856;BME280;5987;53.140;8.904;2022-12-29T14:11:40;100152.19;;;8.45;100.00
11856;BME280;5987;53.140;8.904;2022-12-29T14:14:44;100152.13;;;8.47;100.00
11856;BME280;5987;53.140;8.904;2022-12-29T14:18:04;100161.78;;;8.45;100.00
11856;BME280;5987;53.140;8.904;2022-12-29T14:21:19;100162.00;;;8.38;100.00
11856;BME280;5987;53.140;8.904;2022-12-29T14:24:41;100168.03;;;8.40;100.00
11856;BME280;5987;53.140;8.904;2022-12-29T14:27:53;100182.00;;;8.39;100.00
11856;BME280;5987;53.140;8.904;2022-12-29T14:30:58;100176.00;;;8.37;100.00
11856;BME280;5987;53.140;8.904;2022-12-29T14:34:29;100193.56;;;8.34;100.00
11856;BME280;5987;53.140;8.904;2022-12-29T14:37:36;100188.63;;;8.26;100.00
11856;BME280;5987;53.140;8.904;2022-12-29T14:40:41;100193.06;;;8.24;100.00
11856;BME280;5987;53.140;8.904;2022-12-29T14:43:56;100203.41;;;8.27;100.00
11856;BME280;5987;53.140;8.904;2022-12-29T14:47:05;100203.63;;;8.21;100.00
11856;BME280;5987;53.140;8.904;2022-12-29T14:50:17;100208.97;;;8.18;100.00
11856;BME280;5987;53.140;8.904;2022-12-29T14:53:47;100217.84;;;8.14;100.00
11856;BME280;5987;53.140;8.904;2022-12-29T14:56:51;100225.63;;;8.15;100.00
11856;BME280;5987;53.140;8.904;2022-12-29T15:00:03;100235.38;;;8.12;100.00
11856;BME280;5987;53.140;8.904;2022-12-29T15:03:19;100240.81;;;8.05;100.00
11856;BME280;5987;53.140;8.904;2022-12-29T15:06:28;100239.25;;;8.00;100.00
11856;BME280;5987;53.140;8.904;2022-12-29T15:09:37;100254.22;;;7.96;100.00
11856;BME280;5987;53.140;8.904;2022-12-29T15:12:52;100246.47;;;7.93;100.00
11856;BME280;5987;53.140;8.904;2022-12-29T15:15:56;100245.63;;;7.93;100.00
11856;BME280;5987;53.140;8.904;2022-12-29T15:19:00;100245.69;;;7.91;100.00
11856;BME280;5987;53.140;8.904;2022-12-29T15:22:03;100250.31;;;7.83;100.00
11856;BME280;5987;53.140;8.904;2022-12-29T15:25:16;100249.66;;;7.76;100.00
11856;BME280;5987;53.140;8.904;2022-12-29T15:28:21;100255.00;;;7.73;100.00
11856;BME280;5987;53.140;8.904;2022-12-29T15:31:25;100262.84;;;7.73;100.00
11856;BME280;5987;53.140;8.904;2022-12-29T15:34:32;100265.88;;;7.61;100.00
11856;BME280;5987;53.140;8.904;2022-12-29T15:37:37;100270.47;;;7.54;100.00
11856;BME280;5987;53.140;8.904;2022-12-29T15:40:45;100265.97;;;7.58;100.00
11856;BME280;5987;53.140;8.904;2022-12-29T15:44:02;100281.81;;;7.53;100.00
11856;BME280;5987;53.140;8.904;2022-12-29T15:47:15;100286.03;;;7.57;100.00
11856;BME280;5987;53.140;8.904;2022-12-29T15:50:26;100279.81;;;7.61;100.00
11856;BME280;5987;53.140;8.904;2022-12-29T15:53:32;100284.91;;;7.64;100.00
11856;BME280;5987;53.140;8.904;2022-12-29T15:56:38;100275.38;;;7.63;100.00
11856;BME280;5987;53.140;8.904;2022-12-29T15:59:46;100288.66;;;7.57;100.00
11856;BME280;5987;53.140;8.904;2022-12-29T16:02:51;100290.25;;;7.61;100.00
11856;BME280;5987;53.140;8.904;2022-12-29T16:06:07;100302.50;;;7.59;100.00
11856;BME280;5987;53.140;8.904;2022-12-29T16:09:16;100309.50;;;7.59;100.00
11856;BME280;5987;53.140;8.904;2022-12-29T16:12:25;100315.00;;;7.49;100.00
11856;BME280;5987;53.140;8.904;2022-12-29T16:15:30;100321.44;;;7.39;100.00
11856;BME280;5987;53.140;8.904;2022-12-29T16:18:36;100316.47;;;7.31;100.00
11856;BME280;5987;53.140;8.904;2022-12-29T16:21:42;100317.47;;;7.27;100.00
11856;BME280;5987;53.140;8.904;2022-12-29T16:24:47;100317.84;;;7.15;100.00
11856;BME280;5987;53.140;8.904;2022-12-29T16:27:53;100310.19;;;7.09;100.00
11856;BME280;5987;53.140;8.904;2022-12-29T16:31:04;100307.50;;;7.12;100.00
11856;BME280;5987;53.140;8.904;2022-12-29T16:34:19;100302.19;;;7.15;100.00
11856;BME280;5987;53.140;8.904;2022-12-29T16:37:30;100308.25;;;7.15;100.00
11856;BME280;5987;53.140;8.904;2022-12-29T16:40:49;100315.13;;;7.18;100.00
11856;BME280;5987;53.140;8.904;2022-12-29T16:44:16;100310.88;;;7.15;100.00
11856;BME280;5987;53.140;8.904;2022-12-29T16:47:21;100316.84;;;7.19;100.00
11856;BME280;5987;53.140;8.904;2022-12-29T16:50:27;100313.56;;;7.12;100.00
11856;BME280;5987;53.140;8.904;2022-12-29T16:53:36;100317.13;;;7.10;100.00
11856;BME280;5987;53.140;8.904;2022-12-29T16:56:44;100323.25;;;7.09;100.00
11856;BME280;5987;53.140;8.904;2022-12-29T16:59:53;100321.34;;;7.14;100.00
11856;BME280;5987;53.140;8.904;2022-12-29T17:03:00;100321.16;;;7.20;100.00